sensor_id;sensor_type;location;lat;lon;timestamp;temperature;humidity
4677;DHT22;2352;48.180;11.478;2022-11-15T00:01:00;8.60;92.80
4677;DHT22;2352;48.180;11.478;2022-11-15T00:04:04;8.50;92.80
4677;DHT22;2352;48.180;11.478;2022-11-15T00:07:07;8.50;92.90
4677;DHT22;2352;48.180;11.478;2022-11-15T00:10:23;8.60;92.70
4677;DHT22;2352;48.180;11.478;2022-11-15T00:13:26;8.50;92.70
4677;DHT22;2352;48.180;11.478;2022-11-15T00:16:29;8.40;92.90
4677;DHT22;2352;48.180;11.478;2022-11-15T00:19:34;8.40;92.90
4677;DHT22;2352;48.180;11.478;2022-11-15T00:22:37;8.40;92.90
4677;DHT22;2352;48.180;11.478;2022-11-15T00:25:40;8.30;92.90
4677;DHT22;2352;48.180;11.478;2022-11-15T00:28:43;8.30;93.00
4677;DHT22;2352;48.180;11.478;2022-11-15T00:31:45;8.20;92.90
4677;DHT22;2352;48.180;11.478;2022-11-15T00:34:50;8.10;93.10
4677;DHT22;2352;48.180;11.478;2022-11-15T00:37:53;8.10;93.20
4677;DHT22;2352;48.180;11.478;2022-11-15T00:40:55;8.10;93.20
4677;DHT22;2352;48.180;11.478;2022-11-15T00:43:59;8.10;93.20
4677;DHT22;2352;48.180;11.478;2022-11-15T00:47:02;8.10;93.20
4677;DHT22;2352;48.180;11.478;2022-11-15T00:50:07;8.10;93.10
4677;DHT22;2352;48.180;11.478;2022-11-15T00:53:16;8.10;93.10
4677;DHT22;2352;48.180;11.478;2022-11-15T00:56:19;8.10;93.10
4677;DHT22;2352;48.180;11.478;2022-11-15T00:59:22;8.10;93.10
4677;DHT22;2352;48.180;11.478;2022-11-15T01:02:25;8.10;93.00
4677;DHT22;2352;48.180;11.478;2022-11-15T01:05:29;8.10;93.50
4677;DHT22;2352;48.180;11.478;2022-11-15T01:08:32;8.00;93.40
4677;DHT22;2352;48.180;11.478;2022-11-15T01:11:35;8.10;93.20
4677;DHT22;2352;48.180;11.478;2022-11-15T01:14:38;8.10;93.20
4677;DHT22;2352;48.180;11.478;2022-11-15T01:17:41;8.00;93.10
4677;DHT22;2352;48.180;11.478;2022-11-15T01:20:45;8.00;93.30
4677;DHT22;2352;48.180;11.478;2022-11-15T01:23:48;8.00;93.10
4677;DHT22;2352;48.180;11.478;2022-11-15T01:26:55;7.80;93.40
4677;DHT22;2352;48.180;11.478;2022-11-15T01:29:57;7.70;93.80
4677;DHT22;2352;48.180;11.478;2022-11-15T01:33:00;7.80;93.80
4677;DHT22;2352;48.180;11.478;2022-11-15T01:36:06;7.70;93.90
4677;DHT22;2352;48.180;11.478;2022-11-15T01:39:10;7.70;93.80
4677;DHT22;2352;48.180;11.478;2022-11-15T01:42:13;7.60;93.80
4677;DHT22;2352;48.180;11.478;2022-11-15T01:45:16;7.70;93.90
4677;DHT22;2352;48.180;11.478;2022-11-15T01:48:20;7.70;93.50
4677;DHT22;2352;48.180;11.478;2022-11-15T01:51:27;7.70;93.70
4677;DHT22;2352;48.180;11.478;2022-11-15T01:54:33;7.70;93.70
4677;DHT22;2352;48.180;11.478;2022-11-15T01:57:37;7.80;93.60
4677;DHT22;2352;48.180;11.478;2022-11-15T02:00:40;7.80;93.50
4677;DHT22;2352;48.180;11.478;2022-11-15T02:03:48;7.80;93.50
4677;DHT22;2352;48.180;11.478;2022-11-15T02:06:53;7.70;93.30
4677;DHT22;2352;48.180;11.478;2022-11-15T02:09:58;7.40;94.30
4677;DHT22;2352;48.180;11.478;2022-11-15T02:13:04;7.40;94.00
4677;DHT22;2352;48.180;11.478;2022-11-15T02:16:13;7.50;94.00
4677;DHT22;2352;48.180;11.478;2022-11-15T02:19:29;7.60;93.80
4677;DHT22;2352;48.180;11.478;2022-11-15T02:22:57;7.80;93.20
4677;DHT22;2352;48.180;11.478;2022-11-15T02:26:19;7.60;93.20
4677;DHT22;2352;48.180;11.478;2022-11-15T02:29:41;7.60;93.20
4677;DHT22;2352;48.180;11.478;2022-11-15T02:32:52;7.60;93.10
4677;DHT22;2352;48.180;11.478;2022-11-15T02:35:59;7.60;93.20
4677;DHT22;2352;48.180;11.478;2022-11-15T02:39:07;7.60;93.10
4677;DHT22;2352;48.180;11.478;2022-11-15T02:42:16;7.60;93.20
4677;DHT22;2352;48.180;11.478;2022-11-15T02:45:41;7.60;93.10
4677;DHT22;2352;48.180;11.478;2022-11-15T02:48:49;7.60;92.80
4677;DHT22;2352;48.180;11.478;2022-11-15T02:51:52;7.60;92.80
4677;DHT22;2352;48.180;11.478;2022-11-15T02:54:58;7.60;92.90
4677;DHT22;2352;48.180;11.478;2022-11-15T02:58:19;7.60;92.90
4677;DHT22;2352;48.180;11.478;2022-11-15T03:01:36;7.50;92.90
4677;DHT22;2352;48.180;11.478;2022-11-15T03:04:45;7.50;93.20
4677;DHT22;2352;48.180;11.478;2022-11-15T03:07:54;7.40;93.20
4677;DHT22;2352;48.180;11.478;2022-11-15T03:11:08;7.40;93.30
4677;DHT22;2352;48.180;11.478;2022-11-15T03:14:18;7.50;94.10
4677;DHT22;2352;48.180;11.478;2022-11-15T03:17:25;7.50;94.10
4677;DHT22;2352;48.180;11.478;2022-11-15T03:20:31;7.60;95.00
4677;DHT22;2352;48.180;11.478;2022-11-15T03:23:36;7.60;94.50
4677;DHT22;2352;48.180;11.478;2022-11-15T03:26:41;7.70;94.60
4677;DHT22;2352;48.180;11.478;2022-11-15T03:29:51;7.60;93.90
4677;DHT22;2352;48.180;11.478;2022-11-15T03:32:56;7.30;94.00
4677;DHT22;2352;48.180;11.478;2022-11-15T03:36:02;7.50;94.90
4677;DHT22;2352;48.180;11.478;2022-11-15T03:39:06;7.50;94.30
4677;DHT22;2352;48.180;11.478;2022-11-15T03:42:17;7.50;94.20
4677;DHT22;2352;48.180;11.478;2022-11-15T03:45:23;7.60;94.30
4677;DHT22;2352;48.180;11.478;2022-11-15T03:48:33;7.50;93.70
4677;DHT22;2352;48.180;11.478;2022-11-15T03:51:39;7.60;94.80
4677;DHT22;2352;48.180;11.478;2022-11-15T03:54:51;7.60;94.50
4677;DHT22;2352;48.180;11.478;2022-11-15T03:57:58;7.70;94.50
4677;DHT22;2352;48.180;11.478;2022-11-15T04:01:02;7.70;93.80
4677;DHT22;2352;48.180;11.478;2022-11-15T04:04:05;7.70;94.60
4677;DHT22;2352;48.180;11.478;2022-11-15T04:07:09;7.70;94.40
4677;DHT22;2352;48.180;11.478;2022-11-15T04:10:13;7.70;94.20
4677;DHT22;2352;48.180;11.478;2022-11-15T04:13:16;7.70;94.30
4677;DHT22;2352;48.180;11.478;2022-11-15T04:16:19;7.70;94.20
4677;DHT22;2352;48.180;11.478;2022-11-15T04:19:21;7.70;93.60
4677;DHT22;2352;48.180;11.478;2022-11-15T04:22:43;7.60;93.60
4677;DHT22;2352;48.180;11.478;2022-11-15T04:26:05;7.50;94.10
4677;DHT22;2352;48.180;11.478;2022-11-15T04:29:09;7.60;93.80
4677;DHT22;2352;48.180;11.478;2022-11-15T04:32:30;7.50;94.20
4677;DHT22;2352;48.180;11.478;2022-11-15T04:35:33;7.60;94.30
4677;DHT22;2352;48.180;11.478;2022-11-15T04:38:37;7.60;93.90
4677;DHT22;2352;48.180;11.478;2022-11-15T04:41:40;7.40;93.40
4677;DHT22;2352;48.180;11.478;2022-11-15T04:44:43;7.20;93.50
4677;DHT22;2352;48.180;11.478;2022-11-15T04:47:47;7.20;93.80
4677;DHT22;2352;48.180;11.478;2022-11-15T04:50:50;7.30;94.50
4677;DHT22;2352;48.180;11.478;2022-11-15T04:53:54;7.30;94.70
4677;DHT22;2352;48.180;11.478;2022-11-15T04:56:57;7.40;94.40
4677;DHT22;2352;48.180;11.478;2022-11-15T05:00:02;7.30;94.10
4677;DHT22;2352;48.180;11.478;2022-11-15T05:03:06;7.30;93.70
4677;DHT22;2352;48.180;11.478;2022-11-15T05:06:26;7.20;93.60
4677;DHT22;2352;48.180;11.478;2022-11-15T05:09:31;7.30;93.80
4677;DHT22;2352;48.180;11.478;2022-11-15T05:12:34;7.30;94.20
4677;DHT22;2352;48.180;11.478;2022-11-15T05:15:36;7.20;93.70
4677;DHT22;2352;48.180;11.478;2022-11-15T05:18:39;7.30;94.60
4677;DHT22;2352;48.180;11.478;2022-11-15T05:21:42;7.40;94.70
4677;DHT22;2352;48.180;11.478;2022-11-15T05:24:47;7.40;93.90
4677;DHT22;2352;48.180;11.478;2022-11-15T05:27:50;7.40;94.30
4677;DHT22;2352;48.180;11.478;2022-11-15T05:30:53;7.30;93.50
4677;DHT22;2352;48.180;11.478;2022-11-15T05:33:56;7.30;93.90
4677;DHT22;2352;48.180;11.478;2022-11-15T05:37:01;7.30;93.90
4677;DHT22;2352;48.180;11.478;2022-11-15T05:40:06;7.30;93.90
4677;DHT22;2352;48.180;11.478;2022-11-15T05:43:10;7.30;94.20
4677;DHT22;2352;48.180;11.478;2022-11-15T05:46:13;7.30;93.80
4677;DHT22;2352;48.180;11.478;2022-11-15T05:49:20;7.20;93.50
4677;DHT22;2352;48.180;11.478;2022-11-15T05:52:25;7.20;93.60
4677;DHT22;2352;48.180;11.478;2022-11-15T05:55:32;7.20;93.30
4677;DHT22;2352;48.180;11.478;2022-11-15T05:58:35;7.20;93.90
4677;DHT22;2352;48.180;11.478;2022-11-15T06:01:39;7.20;93.60
4677;DHT22;2352;48.180;11.478;2022-11-15T06:04:43;7.20;93.50
4677;DHT22;2352;48.180;11.478;2022-11-15T06:07:45;7.00;93.30
4677;DHT22;2352;48.180;11.478;2022-11-15T06:10:50;7.10;94.10
4677;DHT22;2352;48.180;11.478;2022-11-15T06:13:53;7.20;94.50
4677;DHT22;2352;48.180;11.478;2022-11-15T06:16:56;7.20;94.20
4677;DHT22;2352;48.180;11.478;2022-11-15T06:19:59;7.10;93.70
4677;DHT22;2352;48.180;11.478;2022-11-15T06:23:04;7.20;94.10
4677;DHT22;2352;48.180;11.478;2022-11-15T06:26:08;7.20;94.10
4677;DHT22;2352;48.180;11.478;2022-11-15T06:29:11;7.20;94.40
4677;DHT22;2352;48.180;11.478;2022-11-15T06:32:14;7.20;93.80
4677;DHT22;2352;48.180;11.478;2022-11-15T06:35:17;7.10;93.70
4677;DHT22;2352;48.180;11.478;2022-11-15T06:38:20;7.10;93.60
4677;DHT22;2352;48.180;11.478;2022-11-15T06:41:24;7.10;93.90
4677;DHT22;2352;48.180;11.478;2022-11-15T06:44:27;7.10;93.90
4677;DHT22;2352;48.180;11.478;2022-11-15T06:47:30;7.20;94.20
4677;DHT22;2352;48.180;11.478;2022-11-15T06:50:33;7.10;94.10
4677;DHT22;2352;48.180;11.478;2022-11-15T06:53:36;7.10;94.00
4677;DHT22;2352;48.180;11.478;2022-11-15T06:56:40;7.10;94.60
4677;DHT22;2352;48.180;11.478;2022-11-15T06:59:43;7.10;94.40
4677;DHT22;2352;48.180;11.478;2022-11-15T07:02:46;7.10;94.60
4677;DHT22;2352;48.180;11.478;2022-11-15T07:05:53;7.20;94.80
4677;DHT22;2352;48.180;11.478;2022-11-15T07:08:56;7.20;94.90
4677;DHT22;2352;48.180;11.478;2022-11-15T07:12:00;7.20;95.00
4677;DHT22;2352;48.180;11.478;2022-11-15T07:15:09;7.20;94.60
4677;DHT22;2352;48.180;11.478;2022-11-15T07:18:12;7.20;94.40
4677;DHT22;2352;48.180;11.478;2022-11-15T07:21:15;7.20;94.30
4677;DHT22;2352;48.180;11.478;2022-11-15T07:24:18;7.10;94.40
4677;DHT22;2352;48.180;11.478;2022-11-15T07:27:22;7.10;94.40
4677;DHT22;2352;48.180;11.478;2022-11-15T07:30:26;7.00;95.00
4677;DHT22;2352;48.180;11.478;2022-11-15T07:33:29;7.10;95.20
4677;DHT22;2352;48.180;11.478;2022-11-15T07:36:33;7.20;95.40
4677;DHT22;2352;48.180;11.478;2022-11-15T07:39:36;7.30;95.40
4677;DHT22;2352;48.180;11.478;2022-11-15T07:42:41;7.30;95.40
4677;DHT22;2352;48.180;11.478;2022-11-15T07:45:56;7.20;96.10
4677;DHT22;2352;48.180;11.478;2022-11-15T07:49:00;7.20;96.40
4677;DHT22;2352;48.180;11.478;2022-11-15T07:52:04;7.30;96.20
4677;DHT22;2352;48.180;11.478;2022-11-15T07:55:07;7.50;96.30
4677;DHT22;2352;48.180;11.478;2022-11-15T07:58:13;7.50;96.40
4677;DHT22;2352;48.180;11.478;2022-11-15T08:01:16;7.50;97.00
4677;DHT22;2352;48.180;11.478;2022-11-15T08:04:19;7.60;96.80
4677;DHT22;2352;48.180;11.478;2022-11-15T08:07:22;7.70;97.10
4677;DHT22;2352;48.180;11.478;2022-11-15T08:10:26;7.80;96.80
4677;DHT22;2352;48.180;11.478;2022-11-15T08:13:30;7.90;97.40
4677;DHT22;2352;48.180;11.478;2022-11-15T08:16:34;8.00;97.60
4677;DHT22;2352;48.180;11.478;2022-11-15T08:19:37;8.10;97.50
4677;DHT22;2352;48.180;11.478;2022-11-15T08:22:40;8.20;97.50
4677;DHT22;2352;48.180;11.478;2022-11-15T08:25:43;8.30;97.20
4677;DHT22;2352;48.180;11.478;2022-11-15T08:28:47;8.50;97.00
4677;DHT22;2352;48.180;11.478;2022-11-15T08:31:50;8.60;97.00
4677;DHT22;2352;48.180;11.478;2022-11-15T08:34:53;8.70;96.90
4677;DHT22;2352;48.180;11.478;2022-11-15T08:37:56;8.90;96.60
4677;DHT22;2352;48.180;11.478;2022-11-15T08:41:02;9.00;96.10
4677;DHT22;2352;48.180;11.478;2022-11-15T08:44:07;9.10;95.40
4677;DHT22;2352;48.180;11.478;2022-11-15T08:47:11;9.20;95.10
4677;DHT22;2352;48.180;11.478;2022-11-15T08:50:15;9.30;94.50
4677;DHT22;2352;48.180;11.478;2022-11-15T08:53:18;9.40;94.50
4677;DHT22;2352;48.180;11.478;2022-11-15T08:56:21;9.60;94.70
4677;DHT22;2352;48.180;11.478;2022-11-15T08:59:26;9.70;94.50
4677;DHT22;2352;48.180;11.478;2022-11-15T09:02:29;9.90;94.30
4677;DHT22;2352;48.180;11.478;2022-11-15T09:05:32;9.90;93.90
4677;DHT22;2352;48.180;11.478;2022-11-15T09:08:35;10.10;94.40
4677;DHT22;2352;48.180;11.478;2022-11-15T09:11:54;10.20;94.40
4677;DHT22;2352;48.180;11.478;2022-11-15T09:15:06;10.30;94.70
4677;DHT22;2352;48.180;11.478;2022-11-15T09:18:09;10.40;94.90
4677;DHT22;2352;48.180;11.478;2022-11-15T09:21:12;10.50;94.40
4677;DHT22;2352;48.180;11.478;2022-11-15T09:24:15;10.60;93.60
4677;DHT22;2352;48.180;11.478;2022-11-15T09:27:18;10.60;93.70
4677;DHT22;2352;48.180;11.478;2022-11-15T09:30:23;10.80;93.80
4677;DHT22;2352;48.180;11.478;2022-11-15T09:33:27;10.90;93.70
4677;DHT22;2352;48.180;11.478;2022-11-15T09:36:31;11.00;93.90
4677;DHT22;2352;48.180;11.478;2022-11-15T09:39:34;11.10;93.80
4677;DHT22;2352;48.180;11.478;2022-11-15T09:42:48;11.30;93.70
4677;DHT22;2352;48.180;11.478;2022-11-15T09:46:02;11.30;93.60
4677;DHT22;2352;48.180;11.478;2022-11-15T09:49:10;11.50;93.00
4677;DHT22;2352;48.180;11.478;2022-11-15T09:52:14;11.60;92.60
4677;DHT22;2352;48.180;11.478;2022-11-15T09:55:17;11.70;92.60
4677;DHT22;2352;48.180;11.478;2022-11-15T09:58:28;11.90;92.60
4677;DHT22;2352;48.180;11.478;2022-11-15T10:01:41;12.10;92.20
4677;DHT22;2352;48.180;11.478;2022-11-15T10:04:46;12.30;91.80
4677;DHT22;2352;48.180;11.478;2022-11-15T10:07:56;12.40;91.80
4677;DHT22;2352;48.180;11.478;2022-11-15T10:11:03;12.50;91.20
4677;DHT22;2352;48.180;11.478;2022-11-15T10:14:29;12.60;91.20
4677;DHT22;2352;48.180;11.478;2022-11-15T10:18:15;12.70;91.20
4677;DHT22;2352;48.180;11.478;2022-11-15T10:21:21;12.90;90.10
4677;DHT22;2352;48.180;11.478;2022-11-15T10:24:27;13.00;88.70
4677;DHT22;2352;48.180;11.478;2022-11-15T10:27:30;13.10;88.70
4677;DHT22;2352;48.180;11.478;2022-11-15T10:30:35;13.30;87.70
4677;DHT22;2352;48.180;11.478;2022-11-15T10:33:40;13.50;86.00
4677;DHT22;2352;48.180;11.478;2022-11-15T10:36:44;13.80;85.80
4677;DHT22;2352;48.180;11.478;2022-11-15T10:40:03;13.90;83.40
4677;DHT22;2352;48.180;11.478;2022-11-15T10:43:14;14.10;80.60
4677;DHT22;2352;48.180;11.478;2022-11-15T10:46:22;14.30;79.20
4677;DHT22;2352;48.180;11.478;2022-11-15T10:49:56;14.40;81.20
4677;DHT22;2352;48.180;11.478;2022-11-15T10:53:01;14.50;79.20
4677;DHT22;2352;48.180;11.478;2022-11-15T10:56:07;14.60;76.60
4677;DHT22;2352;48.180;11.478;2022-11-15T10:59:16;14.80;77.80
4677;DHT22;2352;48.180;11.478;2022-11-15T11:02:32;15.00;77.80
4677;DHT22;2352;48.180;11.478;2022-11-15T11:05:38;15.20;75.90
4677;DHT22;2352;48.180;11.478;2022-11-15T11:08:55;15.30;76.90
4677;DHT22;2352;48.180;11.478;2022-11-15T11:11:59;15.50;74.00
4677;DHT22;2352;48.180;11.478;2022-11-15T11:15:11;15.70;74.70
4677;DHT22;2352;48.180;11.478;2022-11-15T11:18:19;15.80;71.30
4677;DHT22;2352;48.180;11.478;2022-11-15T11:21:36;16.00;69.80
4677;DHT22;2352;48.180;11.478;2022-11-15T11:24:49;16.20;72.90
4677;DHT22;2352;48.180;11.478;2022-11-15T11:28:16;16.30;71.60
4677;DHT22;2352;48.180;11.478;2022-11-15T11:31:28;16.50;69.10
4677;DHT22;2352;48.180;11.478;2022-11-15T11:34:42;16.60;67.50
4677;DHT22;2352;48.180;11.478;2022-11-15T11:37:49;16.80;68.80
4677;DHT22;2352;48.180;11.478;2022-11-15T11:41:03;17.00;65.20
4677;DHT22;2352;48.180;11.478;2022-11-15T11:44:16;17.10;65.90
4677;DHT22;2352;48.180;11.478;2022-11-15T11:47:23;17.20;63.80
4677;DHT22;2352;48.180;11.478;2022-11-15T11:50:27;17.40;63.50
4677;DHT22;2352;48.180;11.478;2022-11-15T11:53:39;17.60;62.80
4677;DHT22;2352;48.180;11.478;2022-11-15T11:56:44;17.70;63.30
4677;DHT22;2352;48.180;11.478;2022-11-15T11:59:51;17.90;63.90
4677;DHT22;2352;48.180;11.478;2022-11-15T12:03:07;18.00;64.80
4677;DHT22;2352;48.180;11.478;2022-11-15T12:06:19;18.20;63.60
4677;DHT22;2352;48.180;11.478;2022-11-15T12:09:30;18.40;61.20
4677;DHT22;2352;48.180;11.478;2022-11-15T12:12:38;18.60;60.30
4677;DHT22;2352;48.180;11.478;2022-11-15T12:15:47;18.70;60.70
4677;DHT22;2352;48.180;11.478;2022-11-15T12:18:54;18.90;62.10
4677;DHT22;2352;48.180;11.478;2022-11-15T12:22:03;19.00;58.70
4677;DHT22;2352;48.180;11.478;2022-11-15T12:25:17;19.00;59.90
4677;DHT22;2352;48.180;11.478;2022-11-15T12:28:27;19.10;58.30
4677;DHT22;2352;48.180;11.478;2022-11-15T12:31:38;19.20;58.90
4677;DHT22;2352;48.180;11.478;2022-11-15T12:34:45;19.30;58.10
4677;DHT22;2352;48.180;11.478;2022-11-15T12:37:50;19.30;57.70
4677;DHT22;2352;48.180;11.478;2022-11-15T12:41:13;19.40;58.50
4677;DHT22;2352;48.180;11.478;2022-11-15T12:44:56;19.40;60.10
4677;DHT22;2352;48.180;11.478;2022-11-15T12:52:06;19.40;56.70
4677;DHT22;2352;48.180;11.478;2022-11-15T12:55:30;19.20;57.70
4677;DHT22;2352;48.180;11.478;2022-11-15T12:58:42;19.20;57.30
4677;DHT22;2352;48.180;11.478;2022-11-15T13:02:00;19.10;57.90
4677;DHT22;2352;48.180;11.478;2022-11-15T13:05:51;19.20;58.20
4677;DHT22;2352;48.180;11.478;2022-11-15T13:08:54;19.20;58.40
4677;DHT22;2352;48.180;11.478;2022-11-15T13:11:58;19.20;57.90
4677;DHT22;2352;48.180;11.478;2022-11-15T13:18:54;19.10;59.20
4677;DHT22;2352;48.180;11.478;2022-11-15T13:21:57;19.00;57.20
4677;DHT22;2352;48.180;11.478;2022-11-15T13:25:23;18.80;58.70
4677;DHT22;2352;48.180;11.478;2022-11-15T13:28:32;18.60;58.80
4677;DHT22;2352;48.180;11.478;2022-11-15T13:31:41;18.50;60.40
4677;DHT22;2352;48.180;11.478;2022-11-15T13:34:46;18.30;61.30
4677;DHT22;2352;48.180;11.478;2022-11-15T13:37:55;18.20;63.80
4677;DHT22;2352;48.180;11.478;2022-11-15T13:41:13;18.10;63.30
4677;DHT22;2352;48.180;11.478;2022-11-15T13:44:20;18.00;64.70
4677;DHT22;2352;48.180;11.478;2022-11-15T13:47:26;17.90;65.10
4677;DHT22;2352;48.180;11.478;2022-11-15T13:50:33;17.80;65.80
4677;DHT22;2352;48.180;11.478;2022-11-15T13:53:39;17.70;67.70
4677;DHT22;2352;48.180;11.478;2022-11-15T13:56:45;17.60;68.90
4677;DHT22;2352;48.180;11.478;2022-11-15T13:59:52;17.50;69.50
4677;DHT22;2352;48.180;11.478;2022-11-15T14:03:12;17.40;69.50
4677;DHT22;2352;48.180;11.478;2022-11-15T14:06:20;17.30;70.00
4677;DHT22;2352;48.180;11.478;2022-11-15T14:09:33;17.30;72.60
4677;DHT22;2352;48.180;11.478;2022-11-15T14:12:36;17.30;73.20
4677;DHT22;2352;48.180;11.478;2022-11-15T14:15:40;17.20;72.90
4677;DHT22;2352;48.180;11.478;2022-11-15T14:18:46;17.20;72.20
4677;DHT22;2352;48.180;11.478;2022-11-15T14:22:16;17.10;71.80
4677;DHT22;2352;48.180;11.478;2022-11-15T14:25:22;16.80;73.10
4677;DHT22;2352;48.180;11.478;2022-11-15T14:28:30;17.00;73.40
4677;DHT22;2352;48.180;11.478;2022-11-15T14:31:35;16.90;72.80
4677;DHT22;2352;48.180;11.478;2022-11-15T14:34:46;16.90;74.70
4677;DHT22;2352;48.180;11.478;2022-11-15T14:37:50;16.80;75.40
4677;DHT22;2352;48.180;11.478;2022-11-15T14:40:53;16.70;76.60
4677;DHT22;2352;48.180;11.478;2022-11-15T14:43:57;16.70;76.80
4677;DHT22;2352;48.180;11.478;2022-11-15T14:47:00;16.60;75.70
4677;DHT22;2352;48.180;11.478;2022-11-15T14:50:05;16.50;77.00
4677;DHT22;2352;48.180;11.478;2022-11-15T14:53:12;16.40;78.30
4677;DHT22;2352;48.180;11.478;2022-11-15T14:56:16;16.30;77.10
4677;DHT22;2352;48.180;11.478;2022-11-15T14:59:19;16.20;77.30
4677;DHT22;2352;48.180;11.478;2022-11-15T15:02:25;16.20;78.00
4677;DHT22;2352;48.180;11.478;2022-11-15T15:05:33;16.10;77.50
4677;DHT22;2352;48.180;11.478;2022-11-15T15:08:36;16.00;77.80
4677;DHT22;2352;48.180;11.478;2022-11-15T15:11:39;15.90;78.20
4677;DHT22;2352;48.180;11.478;2022-11-15T15:14:42;15.90;78.50
4677;DHT22;2352;48.180;11.478;2022-11-15T15:17:48;15.80;78.80
4677;DHT22;2352;48.180;11.478;2022-11-15T15:20:56;15.70;79.30
4677;DHT22;2352;48.180;11.478;2022-11-15T15:24:01;15.70;79.60
4677;DHT22;2352;48.180;11.478;2022-11-15T15:27:04;15.50;80.10
4677;DHT22;2352;48.180;11.478;2022-11-15T15:30:08;15.50;80.40
4677;DHT22;2352;48.180;11.478;2022-11-15T15:33:12;15.40;80.50
4677;DHT22;2352;48.180;11.478;2022-11-15T15:36:18;15.40;80.40
4677;DHT22;2352;48.180;11.478;2022-11-15T15:39:21;15.30;80.90
4677;DHT22;2352;48.180;11.478;2022-11-15T15:42:24;15.30;81.00
4677;DHT22;2352;48.180;11.478;2022-11-15T15:45:27;15.20;81.60
4677;DHT22;2352;48.180;11.478;2022-11-15T15:48:31;15.00;81.70
4677;DHT22;2352;48.180;11.478;2022-11-15T15:51:37;15.10;82.00
4677;DHT22;2352;48.180;11.478;2022-11-15T15:54:40;15.10;82.40
4677;DHT22;2352;48.180;11.478;2022-11-15T15:57:43;15.00;82.30
4677;DHT22;2352;48.180;11.478;2022-11-15T16:00:46;15.00;82.40
4677;DHT22;2352;48.180;11.478;2022-11-15T16:03:49;14.90;82.60
4677;DHT22;2352;48.180;11.478;2022-11-15T16:06:58;14.90;82.80
4677;DHT22;2352;48.180;11.478;2022-11-15T16:10:01;14.80;83.10
4677;DHT22;2352;48.180;11.478;2022-11-15T16:13:04;14.70;84.00
4677;DHT22;2352;48.180;11.478;2022-11-15T16:16:09;14.70;83.80
4677;DHT22;2352;48.180;11.478;2022-11-15T16:19:15;14.60;84.00
4677;DHT22;2352;48.180;11.478;2022-11-15T16:22:19;14.50;84.40
4677;DHT22;2352;48.180;11.478;2022-11-15T16:25:23;14.40;84.90
4677;DHT22;2352;48.180;11.478;2022-11-15T16:28:27;14.30;85.30
4677;DHT22;2352;48.180;11.478;2022-11-15T16:31:31;14.20;86.10
4677;DHT22;2352;48.180;11.478;2022-11-15T16:34:34;14.20;85.70
4677;DHT22;2352;48.180;11.478;2022-11-15T16:37:45;14.20;85.80
4677;DHT22;2352;48.180;11.478;2022-11-15T16:40:49;14.10;86.20
4677;DHT22;2352;48.180;11.478;2022-11-15T16:43:52;14.10;86.40
4677;DHT22;2352;48.180;11.478;2022-11-15T16:46:55;13.90;86.90
4677;DHT22;2352;48.180;11.478;2022-11-15T16:49:57;13.90;87.10
4677;DHT22;2352;48.180;11.478;2022-11-15T16:53:02;13.90;87.40
4677;DHT22;2352;48.180;11.478;2022-11-15T16:56:17;13.90;87.20
4677;DHT22;2352;48.180;11.478;2022-11-15T16:59:20;13.90;87.40
4677;DHT22;2352;48.180;11.478;2022-11-15T17:02:23;13.90;87.30
4677;DHT22;2352;48.180;11.478;2022-11-15T17:05:26;13.80;87.40
4677;DHT22;2352;48.180;11.478;2022-11-15T17:08:30;13.80;87.30
4677;DHT22;2352;48.180;11.478;2022-11-15T17:11:34;13.80;87.00
4677;DHT22;2352;48.180;11.478;2022-11-15T17:14:37;13.50;87.90
4677;DHT22;2352;48.180;11.478;2022-11-15T17:17:40;13.50;88.30
4677;DHT22;2352;48.180;11.478;2022-11-15T17:20:43;13.40;88.60
4677;DHT22;2352;48.180;11.478;2022-11-15T17:23:48;13.40;88.70
4677;DHT22;2352;48.180;11.478;2022-11-15T17:26:51;13.30;88.90
4677;DHT22;2352;48.180;11.478;2022-11-15T17:29:55;13.40;88.80
4677;DHT22;2352;48.180;11.478;2022-11-15T17:32:58;13.40;87.80
4677;DHT22;2352;48.180;11.478;2022-11-15T17:36:03;13.30;88.40
4677;DHT22;2352;48.180;11.478;2022-11-15T17:39:08;13.30;88.50
4677;DHT22;2352;48.180;11.478;2022-11-15T17:42:11;13.20;89.00
4677;DHT22;2352;48.180;11.478;2022-11-15T17:45:14;13.20;89.10
4677;DHT22;2352;48.180;11.478;2022-11-15T17:48:17;13.20;88.90
4677;DHT22;2352;48.180;11.478;2022-11-15T17:51:20;13.20;88.80
4677;DHT22;2352;48.180;11.478;2022-11-15T17:54:26;13.10;88.90
4677;DHT22;2352;48.180;11.478;2022-11-15T17:57:28;13.00;89.50
4677;DHT22;2352;48.180;11.478;2022-11-15T18:00:32;12.90;89.80
4677;DHT22;2352;48.180;11.478;2022-11-15T18:03:35;12.90;89.40
4677;DHT22;2352;48.180;11.478;2022-11-15T18:06:38;12.80;89.80
4677;DHT22;2352;48.180;11.478;2022-11-15T18:09:42;12.70;90.20
4677;DHT22;2352;48.180;11.478;2022-11-15T18:12:46;12.70;90.10
4677;DHT22;2352;48.180;11.478;2022-11-15T18:15:53;12.70;90.00
4677;DHT22;2352;48.180;11.478;2022-11-15T18:18:57;12.60;90.10
4677;DHT22;2352;48.180;11.478;2022-11-15T18:22:00;12.70;90.30
4677;DHT22;2352;48.180;11.478;2022-11-15T18:25:07;12.70;90.10
4677;DHT22;2352;48.180;11.478;2022-11-15T18:28:10;12.60;90.40
4677;DHT22;2352;48.180;11.478;2022-11-15T18:31:15;12.60;90.50
4677;DHT22;2352;48.180;11.478;2022-11-15T18:34:18;12.60;90.60
4677;DHT22;2352;48.180;11.478;2022-11-15T18:37:21;12.50;90.80
4677;DHT22;2352;48.180;11.478;2022-11-15T18:40:25;12.50;90.80
4677;DHT22;2352;48.180;11.478;2022-11-15T18:43:28;12.50;90.80
4677;DHT22;2352;48.180;11.478;2022-11-15T18:46:31;12.50;91.00
4677;DHT22;2352;48.180;11.478;2022-11-15T18:49:34;12.50;90.90
4677;DHT22;2352;48.180;11.478;2022-11-15T18:52:37;12.40;91.10
4677;DHT22;2352;48.180;11.478;2022-11-15T18:55:41;12.40;91.20
4677;DHT22;2352;48.180;11.478;2022-11-15T18:58:45;12.30;91.10
4677;DHT22;2352;48.180;11.478;2022-11-15T19:01:49;12.20;91.10
4677;DHT22;2352;48.180;11.478;2022-11-15T19:04:52;12.30;91.20
4677;DHT22;2352;48.180;11.478;2022-11-15T19:07:55;12.30;91.30
4677;DHT22;2352;48.180;11.478;2022-11-15T19:11:03;12.40;91.10
4677;DHT22;2352;48.180;11.478;2022-11-15T19:14:07;12.30;91.10
4677;DHT22;2352;48.180;11.478;2022-11-15T19:17:10;12.30;91.20
4677;DHT22;2352;48.180;11.478;2022-11-15T19:20:13;12.20;91.20
4677;DHT22;2352;48.180;11.478;2022-11-15T19:23:17;12.20;91.40
4677;DHT22;2352;48.180;11.478;2022-11-15T19:26:22;12.20;91.30
4677;DHT22;2352;48.180;11.478;2022-11-15T19:29:25;12.20;91.30
4677;DHT22;2352;48.180;11.478;2022-11-15T19:32:28;12.10;91.50
4677;DHT22;2352;48.180;11.478;2022-11-15T19:35:31;12.20;91.40
4677;DHT22;2352;48.180;11.478;2022-11-15T19:38:35;12.20;91.70
4677;DHT22;2352;48.180;11.478;2022-11-15T19:41:41;12.20;91.70
4677;DHT22;2352;48.180;11.478;2022-11-15T19:44:44;12.10;91.80
4677;DHT22;2352;48.180;11.478;2022-11-15T19:47:47;12.00;92.10
4677;DHT22;2352;48.180;11.478;2022-11-15T19:50:50;11.90;92.30
4677;DHT22;2352;48.180;11.478;2022-11-15T19:53:55;11.90;92.30
4677;DHT22;2352;48.180;11.478;2022-11-15T19:56:59;11.90;92.40
4677;DHT22;2352;48.180;11.478;2022-11-15T20:00:03;11.90;92.30
4677;DHT22;2352;48.180;11.478;2022-11-15T20:03:08;12.00;92.30
4677;DHT22;2352;48.180;11.478;2022-11-15T20:06:12;12.00;92.30
4677;DHT22;2352;48.180;11.478;2022-11-15T20:09:17;12.00;92.30
4677;DHT22;2352;48.180;11.478;2022-11-15T20:12:22;11.90;92.60